Time;durP1;ratioP1;P1;durP2;ratioP2;P2;SDS_P1;SDS_P2;PMS_P1;PMS_P2;Temp;Humidity;BMP_temperature;BMP_pressure;BME280_temperature;BME280_humidity;BME280_pressure;Samples;Min_cycle;Max_cycle;Signal;HPM_P1;HPM_P2
2021/08/30 00:00:46;;;;;;;6.53;4.60;;;;;;;;;;4538234;28;20061;-57
2021/08/30 00:02:56;;;;;;;6.63;4.30;;;;;;;;;;4538799;28;20631;-57
2021/08/30 00:05:07;;;;;;;7.07;4.37;;;;;;;;;;4538004;28;20120;-57
2021/08/30 00:07:18;;;;;;;6.97;4.35;;;;;;;;;;4529483;28;20112;-57
2021/08/30 00:09:28;;;;;;;7.53;4.47;;;;;;;;;;4538207;28;20533;-57
2021/08/30 00:11:38;;;;;;;6.83;4.60;;;;;;;;;;4538641;28;20033;-57
2021/08/30 00:13:49;;;;;;;6.87;4.73;;;;;;;;;;4537304;28;20494;-57
2021/08/30 00:15:59;;;;;;;6.57;4.43;;;;;;;;;;4537059;28;20040;-57
2021/08/30 00:18:10;;;;;;;7.50;4.60;;;;;;;;;;4536194;28;20040;-57
2021/08/30 00:20:21;;;;;;;6.27;4.40;;;;;;;;;;4538192;28;20076;-57
2021/08/30 00:22:31;;;;;;;6.10;4.30;;;;;;;;;;4538340;28;20029;-57
2021/08/30 00:24:42;;;;;;;6.60;4.63;;;;;;;;;;4538944;28;20036;-57
2021/08/30 00:26:53;;;;;;;6.80;4.47;;;;;;;;;;4537616;28;27346;-57
2021/08/30 00:29:03;;;;;;;6.55;4.80;;;;;;;;;;4536527;28;20128;-57
2021/08/30 00:31:14;;;;;;;7.53;4.80;;;;;;;;;;4553819;28;20087;-57
2021/08/30 00:33:24;;;;;;;6.80;4.37;;;;;;;;;;4532566;28;20131;-57
2021/08/30 00:35:35;;;;;;;6.20;4.20;;;;;;;;;;4553752;28;20411;-57
2021/08/30 00:37:47;;;;;;;6.30;4.60;;;;;;;;;;4516815;28;20041;-57
2021/08/30 00:39:58;;;;;;;6.40;4.70;;;;;;;;;;4537859;28;20092;-57
2021/08/30 00:42:09;;;;;;;7.38;4.95;;;;;;;;;;4538518;28;20754;-58
2021/08/30 00:44:23;;;;;;;6.80;4.85;;;;;;;;;;4538366;28;20028;-58
2021/08/30 00:46:33;;;;;;;6.05;4.35;;;;;;;;;;4536949;28;20802;-57
2021/08/30 00:48:46;;;;;;;6.53;4.43;;;;;;;;;;4528737;28;20034;-57
2021/08/30 00:50:57;;;;;;;6.63;4.53;;;;;;;;;;4539137;28;20073;-57
2021/08/30 00:53:07;;;;;;;7.10;4.65;;;;;;;;;;4557072;28;20607;-58
2021/08/30 00:55:18;;;;;;;6.67;4.80;;;;;;;;;;4541437;28;20043;-57
2021/08/30 00:57:29;;;;;;;7.60;5.23;;;;;;;;;;4541661;28;20194;-57
2021/08/30 00:59:42;;;;;;;6.77;4.90;;;;;;;;;;4540986;28;20044;-57
2021/08/30 01:01:52;;;;;;;7.50;4.90;;;;;;;;;;4540915;28;20033;-57
2021/08/30 01:04:06;;;;;;;7.53;4.93;;;;;;;;;;4541130;28;20040;-57
2021/08/30 01:06:45;;;;;;;6.40;4.70;;;;;;;;;;4539487;28;20202;-57
2021/08/30 01:09:23;;;;;;;6.13;4.53;;;;;;;;;;4539489;28;20764;-57
2021/08/30 01:11:37;;;;;;;6.07;4.55;;;;;;;;;;4541169;28;20033;-57
2021/08/30 01:13:56;;;;;;;8.07;4.88;;;;;;;;;;4539974;28;20027;-57
2021/08/30 01:16:10;;;;;;;7.22;4.85;;;;;;;;;;4522635;28;20029;-58
2021/08/30 01:18:23;;;;;;;6.70;4.80;;;;;;;;;;4538949;28;20600;-57
2021/08/30 01:21:02;;;;;;;6.30;4.68;;;;;;;;;;4540787;28;20116;-57
2021/08/30 01:23:14;;;;;;;7.32;5.00;;;;;;;;;;4540898;28;20592;-57
2021/08/30 01:25:25;;;;;;;6.82;4.70;;;;;;;;;;4539510;28;20047;-57
2021/08/30 01:27:36;;;;;;;;;;;;;;;;;;4541853;28;20041;-57
2021/08/30 01:29:53;;;;;;;6.95;4.63;;;;;;;;;;4538463;28;29273;-57
2021/08/30 01:32:26;;;;;;;7.63;5.18;;;;;;;;;;4522916;28;20658;-58
2021/08/30 01:34:38;;;;;;;6.28;4.30;;;;;;;;;;4525553;28;20119;-57
2021/08/30 01:36:50;;;;;;;8.15;4.65;;;;;;;;;;4539651;28;20025;-57
2021/08/30 01:39:02;;;;;;;8.00;5.10;;;;;;;;;;4539683;28;20655;-57
2021/08/30 01:41:16;;;;;;;5.47;4.20;;;;;;;;;;4540827;28;20603;-57
2021/08/30 01:43:27;;;;;;;6.15;4.68;;;;;;;;;;4539305;28;20055;-57
2021/08/30 01:45:38;;;;;;;7.45;5.18;;;;;;;;;;4538942;28;21552;-57
2021/08/30 01:47:51;;;;;;;6.25;4.40;;;;;;;;;;4540785;28;20029;-57
2021/08/30 01:50:03;;;;;;;7.85;4.65;;;;;;;;;;4538932;28;20041;-57
2021/08/30 01:52:14;;;;;;;6.85;4.68;;;;;;;;;;4522837;28;20317;-57
2021/08/30 01:54:25;;;;;;;6.97;4.70;;;;;;;;;;4555913;28;20848;-57
2021/08/30 01:56:35;;;;;;;6.20;4.35;;;;;;;;;;4551196;28;20070;-58
2021/08/30 02:01:19;;;;;;;6.22;4.57;;;;;;;;;;4540730;28;20033;-57
2021/08/30 02:03:30;;;;;;;5.77;4.10;;;;;;;;;;4539557;28;20478;-57
2021/08/30 02:05:42;;;;;;;;;;;;;;;;;;4523005;28;20044;-57
2021/08/30 02:07:52;;;;;;;6.53;4.47;;;;;;;;;;4539947;28;19928;-58
2021/08/30 02:10:03;;;;;;;6.17;4.37;;;;;;;;;;4539992;28;20094;-58
2021/08/30 02:12:13;;;;;;;7.17;5.07;;;;;;;;;;4540353;28;20029;-58
2021/08/30 02:14:24;;;;;;;6.43;4.70;;;;;;;;;;4539040;28;20032;-58
2021/08/30 02:16:36;;;;;;;6.40;4.77;;;;;;;;;;4555799;28;20155;-58
2021/08/30 02:18:54;;;;;;;7.15;5.00;;;;;;;;;;4539458;28;20041;-58
2021/08/30 02:21:29;;;;;;;6.72;4.75;;;;;;;;;;4539016;28;20041;-57
2021/08/30 02:24:08;;;;;;;6.60;4.75;;;;;;;;;;4527983;28;20052;-57
2021/08/30 02:26:21;;;;;;;7.18;5.28;;;;;;;;;;4538661;28;21316;-57
2021/08/30 02:28:32;;;;;;;7.05;5.05;;;;;;;;;;4540430;28;20040;-58
2021/08/30 02:30:42;;;;;;;6.00;4.53;;;;;;;;;;4539668;28;20405;-58
2021/08/30 02:32:55;;;;;;;7.00;5.10;;;;;;;;;;4540097;28;20601;-57
2021/08/30 02:35:07;;;;;;;7.57;5.07;;;;;;;;;;4521187;28;20040;-57
2021/08/30 02:37:17;;;;;;;;;;;;;;;;;;4540446;28;20029;-57
2021/08/30 02:39:28;;;;;;;7.37;5.03;;;;;;;;;;4528694;28;19917;-57
2021/08/30 02:41:39;;;;;;;7.10;5.25;;;;;;;;;;4555373;28;20047;-57
2021/08/30 02:43:50;;;;;;;7.17;4.93;;;;;;;;;;4540202;28;20040;-57
2021/08/30 02:46:01;;;;;;;6.57;4.75;;;;;;;;;;4539020;28;20144;-57
2021/08/30 02:48:12;;;;;;;7.38;5.20;;;;;;;;;;4539140;28;20563;-57
2021/08/30 02:50:22;;;;;;;8.27;5.27;;;;;;;;;;4539367;28;20056;-57
2021/08/30 02:52:34;;;;;;;7.53;5.40;;;;;;;;;;4538747;28;20029;-58
2021/08/30 02:54:46;;;;;;;7.30;5.22;;;;;;;;;;4538437;28;20264;-58
2021/08/30 02:56:56;;;;;;;;;;;;;;;;;;4539352;28;20045;-58
2021/08/30 02:59:07;;;;;;;6.38;4.60;;;;;;;;;;4539028;28;19919;-57
2021/08/30 03:01:18;;;;;;;7.53;5.50;;;;;;;;;;4538453;28;20033;-58
2021/08/30 03:03:29;;;;;;;7.53;5.32;;;;;;;;;;4538090;28;20083;-57
2021/08/30 03:05:40;;;;;;;7.60;5.63;;;;;;;;;;4539784;28;20033;-57
2021/08/30 03:07:50;;;;;;;6.80;4.95;;;;;;;;;;4538167;28;20732;-57
2021/08/30 03:10:01;;;;;;;7.40;5.20;;;;;;;;;;4538207;28;20037;-58
2021/08/30 03:12:14;;;;;;;7.23;5.43;;;;;;;;;;4555661;28;20033;-57
2021/08/30 03:14:26;;;;;;;6.65;5.03;;;;;;;;;;4537855;28;20025;-58
2021/08/30 03:16:36;;;;;;;6.97;5.30;;;;;;;;;;4521448;28;20678;-57
2021/08/30 03:18:47;;;;;;;7.20;5.37;;;;;;;;;;4538908;28;20082;-57
2021/08/30 03:20:58;;;;;;;6.80;4.63;;;;;;;;;;4538441;28;20036;-57
2021/08/30 03:23:09;;;;;;;7.07;5.50;;;;;;;;;;4539322;28;20044;-57
2021/08/30 03:25:20;;;;;;;;;;;;;;;;;;4532442;28;20041;-57
2021/08/30 03:27:30;;;;;;;7.13;5.40;;;;;;;;;;4536972;28;20408;-57
2021/08/30 03:29:42;;;;;;;7.22;4.90;;;;;;;;;;4539051;28;20072;-57
2021/08/30 03:31:53;;;;;;;6.88;5.15;;;;;;;;;;4554552;28;20045;-57
2021/08/30 03:34:04;;;;;;;6.37;4.67;;;;;;;;;;4538082;28;20363;-57
2021/08/30 03:36:15;;;;;;;6.85;5.20;;;;;;;;;;4538383;28;20062;-57
2021/08/30 03:38:26;;;;;;;7.90;5.38;;;;;;;;;;4539137;28;20060;-57
2021/08/30 03:40:36;;;;;;;7.38;5.32;;;;;;;;;;4538909;28;20040;-57
2021/08/30 03:42:47;;;;;;;7.43;4.97;;;;;;;;;;4539655;28;20033;-57
2021/08/30 03:44:59;;;;;;;7.53;5.28;;;;;;;;;;4520936;28;20037;-58
2021/08/30 03:47:10;;;;;;;6.97;4.97;;;;;;;;;;4537169;28;20145;-57
2021/08/30 03:49:22;;;;;;;6.25;4.85;;;;;;;;;;4519243;28;20634;-57
2021/08/30 03:51:34;;;;;;;6.30;4.88;;;;;;;;;;4538030;28;20037;-57
2021/08/30 03:53:45;;;;;;;7.00;5.45;;;;;;;;;;4537734;28;20638;-57
2021/08/30 03:55:57;;;;;;;6.85;5.20;;;;;;;;;;4537977;28;20059;-57
2021/08/30 03:58:10;;;;;;;8.93;5.53;;;;;;;;;;4538714;28;20033;-58
2021/08/30 04:00:20;;;;;;;6.88;5.13;;;;;;;;;;4537410;28;20041;-57
2021/08/30 04:02:31;;;;;;;7.20;4.93;;;;;;;;;;4538190;28;20044;-57
2021/08/30 04:04:43;;;;;;;7.32;5.10;;;;;;;;;;4539440;28;20129;-57
2021/08/30 04:06:53;;;;;;;;;;;;;;;;;;4537754;28;20048;-57
2021/08/30 04:09:04;;;;;;;6.88;4.93;;;;;;;;;;4554065;28;19967;-57
2021/08/30 04:11:15;;;;;;;7.53;5.40;;;;;;;;;;4533566;28;20044;-57
2021/08/30 04:13:27;;;;;;;7.40;5.30;;;;;;;;;;4538521;28;20103;-57
2021/08/30 04:15:37;;;;;;;7.60;5.57;;;;;;;;;;4520176;28;20531;-57
2021/08/30 04:17:48;;;;;;;6.93;5.23;;;;;;;;;;4538793;28;20063;-57
2021/08/30 04:19:58;;;;;;;7.97;5.60;;;;;;;;;;4538565;28;20057;-57
2021/08/30 04:22:09;;;;;;;7.27;5.10;;;;;;;;;;4538730;28;20037;-58
2021/08/30 04:24:20;;;;;;;8.18;5.70;;;;;;;;;;4539094;28;20947;-58
2021/08/30 04:26:30;;;;;;;8.93;5.90;;;;;;;;;;4536313;28;20197;-57
2021/08/30 04:28:40;;;;;;;8.13;6.10;;;;;;;;;;4538055;28;32416;-58
2021/08/30 04:30:53;;;;;;;7.93;5.47;;;;;;;;;;4538305;28;20727;-58
2021/08/30 04:33:06;;;;;;;8.30;6.13;;;;;;;;;;4538356;28;20036;-57
2021/08/30 04:35:17;;;;;;;8.90;6.13;;;;;;;;;;4536284;28;20041;-58
2021/08/30 04:37:27;;;;;;;9.00;6.30;;;;;;;;;;4537460;28;34069;-58
2021/08/30 04:39:38;;;;;;;8.50;5.97;;;;;;;;;;4538398;28;20036;-57
2021/08/30 04:41:48;;;;;;;7.87;6.03;;;;;;;;;;4537954;28;20029;-57
2021/08/30 04:43:59;;;;;;;8.50;5.90;;;;;;;;;;4553580;28;21194;-57
2021/08/30 04:46:09;;;;;;;8.67;6.03;;;;;;;;;;4538383;28;20087;-58
2021/08/30 04:48:20;;;;;;;8.53;5.93;;;;;;;;;;4536251;28;20037;-58
2021/08/30 04:50:50;;;;;;;8.87;6.57;;;;;;;;;;4536094;28;20045;-57
2021/08/30 04:53:01;;;;;;;8.50;5.93;;;;;;;;;;4527868;28;20106;-57
2021/08/30 04:55:12;;;;;;;8.52;6.18;;;;;;;;;;4524592;28;20038;-57
2021/08/30 04:57:23;;;;;;;8.50;6.07;;;;;;;;;;4534123;28;20049;-57
2021/08/30 04:59:34;;;;;;;8.43;6.28;;;;;;;;;;4528335;28;20636;-57
2021/08/30 05:01:44;;;;;;;8.60;6.07;;;;;;;;;;4512559;28;20049;-57
2021/08/30 05:03:55;;;;;;;8.17;6.00;;;;;;;;;;4530302;28;20624;-57
2021/08/30 05:06:05;;;;;;;9.67;6.20;;;;;;;;;;4515357;28;20053;-58
2021/08/30 05:08:17;;;;;;;9.07;5.97;;;;;;;;;;4529970;28;20059;-58
2021/08/30 05:10:28;;;;;;;8.57;6.43;;;;;;;;;;4528772;28;20088;-58
2021/08/30 05:12:38;;;;;;;8.10;6.10;;;;;;;;;;4529616;28;20552;-57
2021/08/30 05:14:49;;;;;;;9.70;6.33;;;;;;;;;;4530172;28;35004;-58
2021/08/30 05:16:59;;;;;;;8.00;5.87;;;;;;;;;;4512739;28;20045;-57
2021/08/30 05:19:09;;;;;;;9.97;6.27;;;;;;;;;;4531087;28;33554;-57
2021/08/30 05:21:20;;;;;;;7.33;5.90;;;;;;;;;;4521480;28;20045;-57
2021/08/30 05:23:30;;;;;;;9.17;6.30;;;;;;;;;;4532524;28;20138;-58
2021/08/30 05:25:41;;;;;;;7.93;6.17;;;;;;;;;;4531188;28;37346;-57
2021/08/30 05:27:51;;;;;;;8.37;6.07;;;;;;;;;;4514802;28;20045;-57
2021/08/30 05:30:02;;;;;;;8.23;6.03;;;;;;;;;;4524330;28;20132;-57
2021/08/30 05:32:13;;;;;;;7.80;5.88;;;;;;;;;;4536113;28;20037;-57
2021/08/30 05:34:24;;;;;;;8.53;6.10;;;;;;;;;;4537012;28;20033;-57
2021/08/30 05:36:34;;;;;;;8.10;6.27;;;;;;;;;;4536468;28;20403;-58
2021/08/30 05:38:44;;;;;;;8.83;6.33;;;;;;;;;;4539181;28;21525;-57
2021/08/30 05:40:55;;;;;;;9.63;6.33;;;;;;;;;;4538714;28;20116;-58
2021/08/30 05:43:05;;;;;;;8.83;6.40;;;;;;;;;;4539024;28;20870;-57
2021/08/30 05:45:16;;;;;;;9.73;6.03;;;;;;;;;;4539496;28;20069;-57
2021/08/30 05:47:26;;;;;;;8.93;6.37;;;;;;;;;;4539376;28;20140;-57
2021/08/30 05:49:37;;;;;;;8.77;6.13;;;;;;;;;;4537604;28;20079;-57
2021/08/30 05:51:47;;;;;;;9.57;6.67;;;;;;;;;;4539857;28;20037;-57
2021/08/30 05:53:58;;;;;;;8.13;6.18;;;;;;;;;;4539453;28;20033;-58
2021/08/30 05:56:09;;;;;;;9.17;6.80;;;;;;;;;;4539317;28;20458;-58
2021/08/30 05:58:21;;;;;;;8.88;6.60;;;;;;;;;;4554463;28;20948;-57
2021/08/30 06:00:31;;;;;;;9.20;6.85;;;;;;;;;;4538932;28;20108;-58
2021/08/30 06:02:42;;;;;;;9.80;6.57;;;;;;;;;;4539584;28;20033;-58
2021/08/30 06:04:52;;;;;;;8.77;6.27;;;;;;;;;;4528758;28;20029;-57
2021/08/30 06:07:03;;;;;;;8.37;6.23;;;;;;;;;;4539732;28;20037;-57
2021/08/30 06:09:13;;;;;;;10.00;6.90;;;;;;;;;;4539618;28;20037;-58
2021/08/30 06:11:24;;;;;;;9.40;7.00;;;;;;;;;;4539687;28;20392;-60
2021/08/30 06:13:34;;;;;;;9.70;6.53;;;;;;;;;;4537680;28;20576;-57
2021/08/30 06:15:45;;;;;;;9.53;6.63;;;;;;;;;;4539427;28;20108;-57
2021/08/30 06:17:55;;;;;;;10.30;7.50;;;;;;;;;;4528065;28;20041;-57
2021/08/30 06:20:07;;;;;;;9.57;6.87;;;;;;;;;;4538229;28;20045;-57
2021/08/30 06:22:17;;;;;;;10.32;7.43;;;;;;;;;;4538364;28;20035;-57
2021/08/30 06:24:28;;;;;;;10.27;7.27;;;;;;;;;;4539266;28;20043;-57
2021/08/30 06:26:38;;;;;;;9.63;7.10;;;;;;;;;;4539511;28;20504;-58
2021/08/30 06:28:49;;;;;;;11.20;7.47;;;;;;;;;;4539495;28;20029;-57
2021/08/30 06:30:59;;;;;;;10.37;7.67;;;;;;;;;;4539710;28;20037;-57
2021/08/30 06:33:10;;;;;;;11.03;8.43;;;;;;;;;;4540287;28;20040;-60
2021/08/30 06:35:22;;;;;;;10.80;8.15;;;;;;;;;;4539986;28;20564;-59
2021/08/30 06:37:32;;;;;;;11.65;8.10;;;;;;;;;;4540094;28;20029;-58
2021/08/30 06:39:42;;;;;;;10.13;7.20;;;;;;;;;;4540067;28;21125;-57
2021/08/30 06:41:53;;;;;;;10.90;7.87;;;;;;;;;;4538936;28;20533;-57
2021/08/30 06:44:03;;;;;;;10.53;7.60;;;;;;;;;;4539245;28;20041;-57
2021/08/30 06:46:14;;;;;;;10.97;8.10;;;;;;;;;;4539703;28;20052;-58
2021/08/30 06:48:24;;;;;;;10.17;7.17;;;;;;;;;;4532812;28;20492;-57
2021/08/30 06:50:35;;;;;;;10.13;7.47;;;;;;;;;;4539189;28;20048;-58
2021/08/30 06:52:45;;;;;;;10.33;7.60;;;;;;;;;;4521085;28;20042;-57
2021/08/30 06:54:56;;;;;;;9.57;7.30;;;;;;;;;;4539600;28;20114;-57
2021/08/30 06:57:06;;;;;;;9.77;7.03;;;;;;;;;;4537856;28;20072;-57
2021/08/30 06:59:17;;;;;;;9.70;7.10;;;;;;;;;;4539391;28;20139;-57
2021/08/30 07:01:27;;;;;;;9.73;6.83;;;;;;;;;;4537569;28;20128;-57
2021/08/30 07:03:37;;;;;;;9.87;6.97;;;;;;;;;;4537761;28;20037;-57
2021/08/30 07:05:48;;;;;;;10.23;7.00;;;;;;;;;;4537812;28;20164;-57
2021/08/30 07:07:58;;;;;;;9.60;7.20;;;;;;;;;;4538022;28;20108;-57
2021/08/30 07:10:09;;;;;;;9.80;7.10;;;;;;;;;;4539073;28;20255;-58
2021/08/30 07:12:19;;;;;;;10.23;6.30;;;;;;;;;;4539558;28;20686;-58
2021/08/30 07:14:30;;;;;;;9.47;7.27;;;;;;;;;;4554111;28;29228;-57
2021/08/30 07:16:40;;;;;;;9.70;7.43;;;;;;;;;;4538230;28;20041;-58
2021/08/30 07:18:51;;;;;;;10.00;7.10;;;;;;;;;;4539282;28;20060;-57
2021/08/30 07:21:02;;;;;;;10.27;7.28;;;;;;;;;;4539396;28;20246;-57
2021/08/30 07:26:45;;;;;;;9.68;7.05;;;;;;;;;;4536245;28;20033;-57
2021/08/30 07:28:55;;;;;;;8.70;6.37;;;;;;;;;;4536625;28;20489;-58
2021/08/30 07:31:06;;;;;;;7.93;6.53;;;;;;;;;;4537919;28;20401;-57
2021/08/30 07:33:16;;;;;;;8.93;6.77;;;;;;;;;;4537809;28;20036;-57
2021/08/30 07:35:28;;;;;;;9.57;6.80;;;;;;;;;;4538382;28;20060;-58
2021/08/30 07:37:38;;;;;;;9.00;6.82;;;;;;;;;;4538472;28;20029;-57
2021/08/30 07:39:49;;;;;;;8.37;6.23;;;;;;;;;;4554699;28;20418;-58
2021/08/30 07:41:59;;;;;;;8.10;6.10;;;;;;;;;;4538570;28;20037;-57
2021/08/30 07:44:10;;;;;;;8.43;6.20;;;;;;;;;;4538613;28;20036;-57
2021/08/30 07:46:20;;;;;;;8.90;6.10;;;;;;;;;;4536817;28;20032;-58
2021/08/30 07:48:31;;;;;;;9.00;6.70;;;;;;;;;;4538098;28;20956;-58
2021/08/30 07:50:41;;;;;;;8.87;6.03;;;;;;;;;;4538344;28;20048;-58
2021/08/30 07:52:52;;;;;;;9.17;6.20;;;;;;;;;;4518849;28;20610;-57
2021/08/30 07:55:04;;;;;;;9.90;6.87;;;;;;;;;;4537212;28;20048;-57
2021/08/30 07:57:15;;;;;;;8.85;6.20;;;;;;;;;;4538544;28;20033;-67
2021/08/30 07:59:25;;;;;;;7.97;5.93;;;;;;;;;;4538003;28;20041;-61
2021/08/30 08:01:36;;;;;;;8.60;6.10;;;;;;;;;;4553858;28;20082;-65
2021/08/30 08:03:47;;;;;;;7.43;5.70;;;;;;;;;;4553780;28;20485;-63
2021/08/30 08:05:57;;;;;;;9.80;6.30;;;;;;;;;;4518601;28;20045;-57
2021/08/30 08:08:08;;;;;;;8.30;6.43;;;;;;;;;;4554498;28;20039;-57
2021/08/30 08:10:18;;;;;;;7.87;5.83;;;;;;;;;;4536537;28;20075;-57
2021/08/30 08:12:28;;;;;;;7.93;5.80;;;;;;;;;;4536205;28;20590;-57
2021/08/30 08:14:39;;;;;;;6.60;5.20;;;;;;;;;;4537929;28;20108;-57
2021/08/30 08:16:49;;;;;;;7.23;5.20;;;;;;;;;;4538117;28;20095;-57
2021/08/30 08:19:00;;;;;;;8.23;4.93;;;;;;;;;;4537982;28;20025;-55
2021/08/30 08:21:10;;;;;;;6.60;5.00;;;;;;;;;;4553464;28;20044;-57
2021/08/30 08:23:21;;;;;;;7.60;5.20;;;;;;;;;;4536466;28;20045;-57
2021/08/30 08:25:31;;;;;;;6.77;4.60;;;;;;;;;;4538090;28;20029;-57
2021/08/30 08:27:42;;;;;;;7.20;5.17;;;;;;;;;;4538126;28;20123;-57
2021/08/30 08:29:53;;;;;;;7.53;5.32;;;;;;;;;;4537405;28;20623;-56
2021/08/30 08:32:03;;;;;;;6.90;5.17;;;;;;;;;;4537930;28;20124;-57
2021/08/30 08:34:14;;;;;;;8.03;5.50;;;;;;;;;;4538204;28;20477;-58
2021/08/30 08:36:26;;;;;;;6.67;5.30;;;;;;;;;;4535972;28;20264;-59
2021/08/30 08:38:36;;;;;;;6.38;4.75;;;;;;;;;;4537804;28;20033;-58
2021/08/30 08:40:47;;;;;;;6.90;5.10;;;;;;;;;;4553521;28;20024;-58
2021/08/30 08:42:57;;;;;;;6.53;5.13;;;;;;;;;;4536119;28;20113;-56
2021/08/30 08:45:10;;;;;;;7.23;4.80;;;;;;;;;;4520229;28;20033;-57
2021/08/30 08:47:20;;;;;;;6.40;4.70;;;;;;;;;;4536540;28;20032;-56
2021/08/30 08:49:31;;;;;;;6.20;4.43;;;;;;;;;;4519541;28;20048;-57
2021/08/30 08:51:41;;;;;;;6.90;4.83;;;;;;;;;;4537585;28;20164;-57
2021/08/30 08:53:52;;;;;;;6.87;5.27;;;;;;;;;;4537992;28;20037;-57
2021/08/30 08:56:02;;;;;;;6.53;4.87;;;;;;;;;;4536210;28;20108;-57
2021/08/30 08:58:15;;;;;;;7.60;4.90;;;;;;;;;;4536177;28;20186;-57
2021/08/30 09:00:26;;;;;;;5.93;4.47;;;;;;;;;;4537776;28;20055;-57
2021/08/30 09:02:36;;;;;;;7.43;4.87;;;;;;;;;;4536570;28;20036;-57
2021/08/30 09:04:47;;;;;;;5.53;4.00;;;;;;;;;;4537984;28;20943;-58
2021/08/30 09:07:08;;;;;;;5.73;4.53;;;;;;;;;;4537736;28;20037;-57
2021/08/30 09:09:27;;;;;;;5.40;4.20;;;;;;;;;;4536487;28;20539;-58
2021/08/30 09:11:45;;;;;;;6.65;4.68;;;;;;;;;;4537073;28;20275;-57
2021/08/30 09:13:56;;;;;;;6.38;4.85;;;;;;;;;;4539844;28;20040;-57
2021/08/30 09:16:17;;;;;;;5.85;4.47;;;;;;;;;;4540628;28;20033;-57
2021/08/30 09:18:29;;;;;;;6.78;4.75;;;;;;;;;;4540528;28;20041;-57
2021/08/30 09:20:40;;;;;;;6.43;4.60;;;;;;;;;;4540248;28;20628;-57
2021/08/30 09:22:51;;;;;;;6.53;4.77;;;;;;;;;;4539655;28;20037;-57
2021/08/30 09:25:08;;;;;;;7.28;4.82;;;;;;;;;;4540523;28;20040;-58
2021/08/30 09:27:18;;;;;;;7.20;5.13;;;;;;;;;;4540848;28;20037;-57
2021/08/30 09:29:31;;;;;;;6.47;4.70;;;;;;;;;;4539718;28;20760;-57
2021/08/30 09:31:41;;;;;;;6.82;4.40;;;;;;;;;;4555304;28;20059;-57
2021/08/30 09:33:52;;;;;;;6.30;4.40;;;;;;;;;;4538927;28;20124;-57
2021/08/30 09:36:04;;;;;;;5.90;4.25;;;;;;;;;;4540736;28;20079;-58
2021/08/30 09:38:18;;;;;;;6.90;4.47;;;;;;;;;;4539930;28;20548;-58
2021/08/30 09:40:29;;;;;;;5.97;4.45;;;;;;;;;;4540312;28;20654;-58
2021/08/30 09:42:44;;;;;;;6.90;4.40;;;;;;;;;;4540345;28;20090;-58
2021/08/30 09:45:10;;;;;;;5.63;4.28;;;;;;;;;;4555954;28;20032;-57
2021/08/30 09:47:21;;;;;;;6.18;4.50;;;;;;;;;;4540754;28;20029;-57
2021/08/30 09:49:32;;;;;;;6.40;4.38;;;;;;;;;;4538922;28;20040;-57
2021/08/30 09:51:42;;;;;;;6.47;4.13;;;;;;;;;;4538188;28;20697;-58
2021/08/30 09:53:53;;;;;;;6.00;4.37;;;;;;;;;;4540408;28;20120;-58
2021/08/30 09:56:04;;;;;;;5.50;4.23;;;;;;;;;;4539156;28;20029;-58
2021/08/30 09:58:17;;;;;;;4.40;3.67;;;;;;;;;;4555261;28;20036;-58
2021/08/30 10:00:27;;;;;;;5.93;4.18;;;;;;;;;;4537796;28;20036;-58
2021/08/30 10:02:37;;;;;;;5.47;3.90;;;;;;;;;;4539554;28;20501;-58
2021/08/30 10:04:48;;;;;;;5.03;3.80;;;;;;;;;;4538485;28;29631;-58
2021/08/30 10:06:59;;;;;;;4.53;3.60;;;;;;;;;;4540092;28;20036;-58
2021/08/30 10:09:14;;;;;;;4.35;3.60;;;;;;;;;;4538786;28;20033;-58
2021/08/30 10:11:24;;;;;;;5.85;3.88;;;;;;;;;;4538735;28;20107;-58
2021/08/30 10:13:35;;;;;;;5.23;4.20;;;;;;;;;;4539327;28;20048;-59
2021/08/30 10:15:49;;;;;;;5.20;3.93;;;;;;;;;;4538968;28;20032;-58
2021/08/30 10:17:59;;;;;;;4.68;3.45;;;;;;;;;;4521835;28;20652;-58
2021/08/30 10:20:19;;;;;;;5.40;4.20;;;;;;;;;;4537104;28;20124;-58
2021/08/30 10:22:30;;;;;;;5.20;4.35;;;;;;;;;;4539091;28;20029;-57
2021/08/30 10:24:41;;;;;;;6.10;3.90;;;;;;;;;;4538368;28;20041;-58
2021/08/30 10:27:03;;;;;;;5.60;4.00;;;;;;;;;;4539310;28;20028;-58
2021/08/30 10:29:14;;;;;;;5.13;4.10;;;;;;;;;;4538336;28;20033;-58
2021/08/30 10:31:25;;;;;;;5.30;4.05;;;;;;;;;;4554712;28;21287;-58
2021/08/30 10:33:36;;;;;;;5.95;3.90;;;;;;;;;;4540055;28;20037;-57
2021/08/30 10:35:46;;;;;;;4.37;3.53;;;;;;;;;;4539562;28;20041;-58
2021/08/30 10:37:59;;;;;;;5.40;3.93;;;;;;;;;;4539684;28;20512;-58
2021/08/30 10:40:16;;;;;;;5.38;3.67;;;;;;;;;;4539492;28;20033;-58
2021/08/30 10:42:29;;;;;;;5.13;3.80;;;;;;;;;;4545816;28;20608;-58
2021/08/30 10:45:03;;;;;;;5.35;4.00;;;;;;;;;;4539332;28;20120;-58
2021/08/30 10:47:13;;;;;;;5.35;4.03;;;;;;;;;;4539592;28;20041;-58
2021/08/30 10:49:29;;;;;;;5.70;3.90;;;;;;;;;;4523215;28;23709;-58
2021/08/30 10:51:41;;;;;;;4.75;3.53;;;;;;;;;;4537540;28;20119;-58
2021/08/30 10:53:55;;;;;;;6.07;3.70;;;;;;;;;;4537601;28;20702;-58
2021/08/30 10:56:09;;;;;;;6.35;4.15;;;;;;;;;;4538789;28;20037;-58
2021/08/30 10:58:23;;;;;;;4.60;3.35;;;;;;;;;;4538268;28;20128;-58
2021/08/30 11:00:33;;;;;;;4.70;3.50;;;;;;;;;;4538453;28;20048;-58
2021/08/30 11:02:48;;;;;;;5.67;3.60;;;;;;;;;;4533440;28;20079;-58
2021/08/30 11:04:58;;;;;;;5.60;3.67;;;;;;;;;;4537678;28;20048;-58
2021/08/30 11:07:09;;;;;;;4.23;3.50;;;;;;;;;;4525950;28;20052;-58
2021/08/30 11:09:19;;;;;;;4.33;3.40;;;;;;;;;;4538419;28;20045;-58
2021/08/30 11:11:31;;;;;;;5.60;3.83;;;;;;;;;;4539033;28;20056;-58
2021/08/30 11:13:43;;;;;;;4.95;3.45;;;;;;;;;;4538797;28;20118;-58
2021/08/30 11:15:54;;;;;;;3.88;3.17;;;;;;;;;;4539847;28;20110;-58
2021/08/30 11:18:06;;;;;;;4.23;3.07;;;;;;;;;;4553995;28;20094;-58
2021/08/30 11:20:17;;;;;;;3.80;2.90;;;;;;;;;;4539316;28;20144;-60
2021/08/30 11:22:28;;;;;;;4.88;2.97;;;;;;;;;;4536704;28;20063;-57
2021/08/30 11:24:42;;;;;;;4.23;3.20;;;;;;;;;;4537552;28;20563;-57
2021/08/30 11:26:57;;;;;;;4.28;3.30;;;;;;;;;;4539009;28;20040;-58
2021/08/30 11:29:08;;;;;;;3.05;2.60;;;;;;;;;;4553739;28;20060;-58
2021/08/30 11:31:23;;;;;;;4.23;3.33;;;;;;;;;;4537540;28;20136;-57
2021/08/30 11:33:36;;;;;;;4.03;2.97;;;;;;;;;;4536691;28;20045;-58
2021/08/30 11:35:47;;;;;;;5.45;3.00;;;;;;;;;;4537753;28;20045;-58
2021/08/30 11:38:09;;;;;;;4.65;3.45;;;;;;;;;;4539340;28;20083;-58
2021/08/30 11:40:19;;;;;;;4.00;3.25;;;;;;;;;;4537954;28;20033;-58
2021/08/30 11:42:32;;;;;;;4.27;3.20;;;;;;;;;;4537811;28;27868;-58
2021/08/30 11:44:43;;;;;;;4.13;3.13;;;;;;;;;;4538386;28;20068;-58
2021/08/30 11:46:55;;;;;;;4.47;3.33;;;;;;;;;;4538516;28;21201;-58
2021/08/30 11:49:06;;;;;;;4.43;3.22;;;;;;;;;;4538663;28;20040;-58
2021/08/30 11:51:37;;;;;;;4.60;3.20;;;;;;;;;;4536560;28;20040;-58
2021/08/30 11:53:48;;;;;;;4.93;3.50;;;;;;;;;;4538610;28;20029;-58
2021/08/30 11:55:58;;;;;;;4.13;3.07;;;;;;;;;;4536051;28;20488;-58
2021/08/30 11:58:09;;;;;;;4.00;3.00;;;;;;;;;;4554400;28;20032;-58
2021/08/30 12:00:22;;;;;;;4.90;3.40;;;;;;;;;;4538655;28;20044;-58
2021/08/30 12:02:36;;;;;;;5.15;3.70;;;;;;;;;;4537208;28;20064;-58
2021/08/30 12:04:47;;;;;;;3.45;3.10;;;;;;;;;;4525487;28;20104;-58
2021/08/30 12:07:00;;;;;;;4.93;3.47;;;;;;;;;;4538877;28;20364;-58
2021/08/30 12:09:10;;;;;;;4.25;3.10;;;;;;;;;;4538069;28;20842;-58
2021/08/30 12:11:21;;;;;;;4.03;2.83;;;;;;;;;;4538553;28;25462;-58
2021/08/30 12:13:44;;;;;;;3.87;3.10;;;;;;;;;;4533776;28;20136;-58
2021/08/30 12:15:54;;;;;;;4.55;3.42;;;;;;;;;;4538171;28;20575;-58
2021/08/30 12:18:05;;;;;;;3.93;2.97;;;;;;;;;;4538658;28;20119;-58
2021/08/30 12:20:18;;;;;;;4.28;3.20;;;;;;;;;;4538517;28;20059;-58
2021/08/30 12:22:35;;;;;;;4.05;3.05;;;;;;;;;;4537608;28;20108;-58
2021/08/30 12:24:45;;;;;;;4.28;3.13;;;;;;;;;;4538645;28;20662;-58
2021/08/30 12:26:56;;;;;;;4.53;3.53;;;;;;;;;;4538760;28;20025;-58
2021/08/30 12:29:09;;;;;;;5.10;3.57;;;;;;;;;;4538152;28;20044;-58
2021/08/30 12:31:31;;;;;;;4.65;3.30;;;;;;;;;;4538118;28;20048;-58
2021/08/30 12:33:41;;;;;;;5.00;3.45;;;;;;;;;;4545661;28;20037;-58
2021/08/30 12:35:54;;;;;;;5.83;3.53;;;;;;;;;;4538201;28;20025;-58
2021/08/30 12:38:25;;;;;;;3.50;2.80;;;;;;;;;;4536909;28;20759;-58
2021/08/30 12:40:37;;;;;;;3.42;2.70;;;;;;;;;;4537949;28;20084;-58
2021/08/30 12:42:48;;;;;;;4.03;2.92;;;;;;;;;;4536846;28;20052;-58
2021/08/30 12:44:58;;;;;;;4.07;2.77;;;;;;;;;;4554381;28;20124;-58
2021/08/30 12:47:09;;;;;;;4.37;3.50;;;;;;;;;;4537708;28;20029;-58
2021/08/30 12:49:19;;;;;;;3.90;3.10;;;;;;;;;;4539530;28;20041;-58
2021/08/30 12:51:30;;;;;;;4.10;3.40;;;;;;;;;;4534332;28;20103;-58
2021/08/30 12:53:41;;;;;;;4.60;3.27;;;;;;;;;;4541337;28;20496;-59
2021/08/30 12:55:52;;;;;;;;;;;;;;;;;;4542196;28;20041;-58
2021/08/30 12:58:03;;;;;;;4.75;3.50;;;;;;;;;;4540270;28;19916;-58
2021/08/30 13:00:16;;;;;;;5.78;3.38;;;;;;;;;;4541496;28;20036;-58
2021/08/30 13:02:26;;;;;;;4.32;3.10;;;;;;;;;;4532977;28;20041;-57
2021/08/30 13:04:37;;;;;;;3.90;2.90;;;;;;;;;;4541592;28;20025;-58
2021/08/30 13:06:47;;;;;;;4.33;3.10;;;;;;;;;;4541100;28;21523;-58
2021/08/30 13:08:57;;;;;;;4.13;3.13;;;;;;;;;;4541468;28;20553;-58
2021/08/30 13:11:08;;;;;;;3.77;3.00;;;;;;;;;;4539786;28;20041;-58
2021/08/30 13:13:19;;;;;;;3.80;2.90;;;;;;;;;;4540968;28;20041;-58
2021/08/30 13:15:29;;;;;;;3.58;2.60;;;;;;;;;;4540743;28;20089;-57
2021/08/30 13:17:41;;;;;;;3.57;2.60;;;;;;;;;;4535172;28;20044;-57
2021/08/30 13:19:52;;;;;;;3.40;2.60;;;;;;;;;;4556259;28;20090;-58